createdAt,value
2023-04-07T00:01:20.784Z,7.50
2023-04-07T00:03:52.182Z,7.56
2023-04-07T00:06:20.409Z,7.53
2023-04-07T00:08:48.447Z,7.53
2023-04-07T00:11:16.527Z,7.45
2023-04-07T00:13:46.039Z,7.44
2023-04-07T00:16:14.537Z,7.56
2023-04-07T00:18:42.571Z,7.48
2023-04-07T00:21:10.626Z,7.50
2023-04-07T00:23:39.131Z,7.53
2023-04-07T00:26:07.225Z,7.38
2023-04-07T00:28:35.338Z,7.45
2023-04-07T00:31:04.827Z,7.52
2023-04-07T00:33:32.888Z,7.67
2023-04-07T00:36:00.979Z,7.54
2023-04-07T00:38:29.030Z,7.66
2023-04-07T00:40:59.397Z,7.60
2023-04-07T00:43:27.463Z,7.49
2023-04-07T00:46:06.045Z,7.45
2023-04-07T00:48:34.252Z,7.61
2023-04-07T00:51:02.333Z,7.63
2023-04-07T00:53:30.653Z,7.60
2023-04-07T00:55:58.888Z,7.65
2023-04-07T00:58:27.134Z,7.65
2023-04-07T01:00:58.095Z,7.60
2023-04-07T01:03:30.845Z,7.65
2023-04-07T01:06:01.429Z,7.64
2023-04-07T01:08:34.612Z,7.74
2023-04-07T01:11:07.066Z,7.71
2023-04-07T01:13:37.125Z,7.88
2023-04-07T01:16:08.306Z,7.96
2023-04-07T01:18:38.220Z,7.76
2023-04-07T01:21:08.935Z,7.74
2023-04-07T01:23:53.378Z,7.81
2023-04-07T01:26:22.853Z,7.79
2023-04-07T01:29:06.049Z,7.71
2023-04-07T01:31:35.923Z,7.58
2023-04-07T01:34:03.997Z,7.87
2023-04-07T01:36:33.810Z,7.82
2023-04-07T01:39:01.990Z,7.76
2023-04-07T01:41:30.043Z,7.83
2023-04-07T01:43:58.073Z,7.80
2023-04-07T01:46:28.759Z,7.79
2023-04-07T01:48:58.379Z,7.74
2023-04-07T01:51:28.740Z,7.68
2023-04-07T01:53:57.232Z,7.74
2023-04-07T01:56:32.860Z,7.70
2023-04-07T01:59:00.894Z,7.81
2023-04-07T02:01:29.106Z,7.92
2023-04-07T02:04:09.021Z,7.79
2023-04-07T02:06:40.231Z,7.76
2023-04-07T02:09:11.008Z,7.74
2023-04-07T02:11:39.092Z,7.86
2023-04-07T02:14:07.627Z,7.82
2023-04-07T02:16:36.239Z,7.81
2023-04-07T02:19:05.989Z,7.91
2023-04-07T02:21:35.919Z,7.96
2023-04-07T02:24:09.907Z,7.91
2023-04-07T02:26:37.977Z,8.05
2023-04-07T02:29:06.441Z,7.95
2023-04-07T02:31:34.568Z,8.08
2023-04-07T02:34:02.657Z,7.93
2023-04-07T02:36:32.137Z,7.82
2023-04-07T02:39:02.961Z,7.99
2023-04-07T02:41:31.197Z,7.89
2023-04-07T02:43:59.220Z,8.08
2023-04-07T02:46:27.260Z,8.04
2023-04-07T02:48:55.330Z,8.06
2023-04-07T02:51:23.948Z,7.95
2023-04-07T02:53:53.515Z,8.03
2023-04-07T02:56:21.950Z,8.00
2023-04-07T02:58:49.977Z,8.07
2023-04-07T03:01:18.133Z,8.08
2023-04-07T03:03:47.971Z,8.20
2023-04-07T03:06:16.164Z,8.10
2023-04-07T03:08:44.333Z,8.00
2023-04-07T03:11:15.716Z,7.94
2023-04-07T03:13:43.753Z,8.02
2023-04-07T03:16:11.790Z,8.11
2023-04-07T03:18:40.034Z,8.17
2023-04-07T03:21:08.275Z,8.22
2023-04-07T03:23:36.277Z,8.17
2023-04-07T03:26:04.438Z,8.13
2023-04-07T03:28:33.934Z,8.27
2023-04-07T03:31:02.057Z,8.26
2023-04-07T03:33:30.137Z,8.35
2023-04-07T03:36:03.094Z,8.26
2023-04-07T03:38:31.126Z,8.33
2023-04-07T03:40:59.215Z,8.28
2023-04-07T03:43:27.368Z,8.33
2023-04-07T03:45:56.794Z,8.34
2023-04-07T03:48:24.825Z,8.31
2023-04-07T03:50:52.831Z,8.26
2023-04-07T03:53:21.044Z,8.23
2023-04-07T03:55:52.255Z,8.17
2023-04-07T03:58:20.824Z,8.13
2023-04-07T04:00:50.901Z,8.20
2023-04-07T04:03:23.098Z,8.18
2023-04-07T04:05:51.190Z,8.26
2023-04-07T04:08:19.666Z,8.27
2023-04-07T04:10:50.038Z,8.22
2023-04-07T04:13:18.180Z,8.20
2023-04-07T04:15:46.227Z,8.25
2023-04-07T04:18:15.724Z,8.28
2023-04-07T04:20:45.274Z,8.27
2023-04-07T04:23:13.307Z,8.31
2023-04-07T04:25:41.329Z,8.30
2023-04-07T04:28:09.706Z,8.30
2023-04-07T04:30:37.984Z,8.19
2023-04-07T04:33:06.026Z,8.30
2023-04-07T04:35:34.190Z,8.27
2023-04-07T04:38:04.051Z,8.26
2023-04-07T04:40:32.223Z,8.30
2023-04-07T04:43:00.525Z,8.41
2023-04-07T04:45:28.523Z,8.35
2023-04-07T04:47:57.167Z,8.43
2023-04-07T04:50:25.221Z,8.36
2023-04-07T04:52:53.206Z,8.42
2023-04-07T04:55:22.652Z,8.47
2023-04-07T04:57:53.898Z,8.43
2023-04-07T05:00:22.607Z,8.45
2023-04-07T05:02:50.911Z,8.48
2023-04-07T05:05:21.890Z,8.61
2023-04-07T05:07:50.065Z,8.50
2023-04-07T05:10:19.331Z,8.61
2023-04-07T05:12:48.873Z,8.61
2023-04-07T05:15:17.264Z,8.73
2023-04-07T05:17:50.435Z,8.80
2023-04-07T05:20:18.822Z,8.78
2023-04-07T05:22:47.001Z,8.70
2023-04-07T05:25:15.022Z,8.84
2023-04-07T05:27:43.345Z,8.93
2023-04-07T05:30:16.409Z,8.92
2023-04-07T05:32:44.471Z,8.80
2023-04-07T05:35:12.554Z,8.92
2023-04-07T05:37:40.764Z,8.88
2023-04-07T05:40:10.121Z,8.72
2023-04-07T05:42:38.069Z,8.80
2023-04-07T05:45:06.897Z,8.93
2023-04-07T05:47:36.325Z,8.90
2023-04-07T05:50:04.506Z,8.67
2023-04-07T05:52:32.688Z,8.77
2023-04-07T05:55:07.391Z,8.65
2023-04-07T05:57:38.591Z,8.73
2023-04-07T06:00:07.745Z,8.64
2023-04-07T06:02:37.390Z,8.78
2023-04-07T06:05:09.037Z,8.41
2023-04-07T06:07:37.033Z,8.22
2023-04-07T06:10:06.237Z,8.35
2023-04-07T06:12:34.356Z,8.53
2023-04-07T06:15:05.387Z,8.54
2023-04-07T06:17:33.437Z,8.76
2023-04-07T06:20:02.978Z,8.74
2023-04-07T06:22:30.972Z,8.87
2023-04-07T06:24:58.963Z,8.66
2023-04-07T06:27:27.473Z,8.42
2023-04-07T06:29:55.411Z,8.40
2023-04-07T06:32:23.815Z,8.67
2023-04-07T06:34:52.233Z,8.48
2023-04-07T06:37:21.724Z,8.36
2023-04-07T06:39:50.480Z,8.35
2023-04-07T06:42:18.428Z,8.46
2023-04-07T06:44:46.431Z,8.38
2023-04-07T06:47:14.456Z,8.21
2023-04-07T06:49:42.457Z,8.39
2023-04-07T06:52:10.492Z,8.26
2023-04-07T06:54:39.919Z,8.37
2023-04-07T06:57:11.983Z,8.34
2023-04-07T06:59:39.970Z,8.23
2023-04-07T07:02:09.058Z,8.18
2023-04-07T07:04:40.285Z,8.00
2023-04-07T07:07:08.330Z,7.88
2023-04-07T07:09:36.352Z,7.98
2023-04-07T07:12:07.585Z,8.01
2023-04-07T07:14:36.177Z,7.97
2023-04-07T07:17:07.088Z,7.92
2023-04-07T07:19:35.611Z,7.93
2023-04-07T07:22:04.482Z,7.77
2023-04-07T07:24:34.118Z,7.84
2023-04-07T07:27:03.562Z,8.08
2023-04-07T07:29:33.198Z,8.10
2023-04-07T07:32:01.374Z,7.89
2023-04-07T07:34:29.491Z,8.21
2023-04-07T07:36:57.899Z,7.91
2023-04-07T07:39:26.006Z,7.87
2023-04-07T07:41:54.086Z,8.07
2023-04-07T07:44:22.890Z,8.03
2023-04-07T07:46:52.438Z,7.95
2023-04-07T07:49:21.533Z,8.08
2023-04-07T07:51:49.764Z,7.96
2023-04-07T07:54:17.961Z,8.01
2023-04-07T07:56:45.959Z,8.05
2023-04-07T07:59:14.880Z,8.06
2023-04-07T08:01:44.163Z,7.92
2023-04-07T08:04:13.716Z,8.14
2023-04-07T08:06:42.124Z,8.14
2023-04-07T08:09:10.131Z,8.41
2023-04-07T08:11:41.033Z,8.34
2023-04-07T08:14:09.969Z,8.30
2023-04-07T08:16:38.316Z,8.40
2023-04-07T08:19:06.444Z,8.37
2023-04-07T08:21:35.863Z,8.27
2023-04-07T08:24:04.742Z,8.14
2023-04-07T08:26:32.854Z,8.15
2023-04-07T08:29:00.879Z,8.45
2023-04-07T08:31:28.965Z,8.26
2023-04-07T08:33:58.284Z,8.18
2023-04-07T08:36:27.586Z,8.00
2023-04-07T08:38:58.810Z,8.16
2023-04-07T08:41:30.525Z,8.23
2023-04-07T08:43:58.835Z,8.16
2023-04-07T08:46:27.364Z,8.10
2023-04-07T08:48:55.420Z,8.20
2023-04-07T08:51:27.398Z,8.33
2023-04-07T08:53:58.192Z,8.33
2023-04-07T08:56:27.557Z,8.40
2023-04-07T08:58:55.641Z,8.27
2023-04-07T09:01:23.864Z,8.35
2023-04-07T09:03:52.194Z,8.46
2023-04-07T09:06:23.984Z,8.63
2023-04-07T09:08:52.557Z,8.62
2023-04-07T09:11:20.767Z,8.50
2023-04-07T09:13:50.780Z,8.43
2023-04-07T09:16:19.361Z,8.37
2023-04-07T09:18:47.836Z,8.43
2023-04-07T09:21:17.487Z,8.72
2023-04-07T09:23:45.758Z,8.70
2023-04-07T09:26:21.212Z,8.47
2023-04-07T09:28:51.951Z,8.80
2023-04-07T09:31:21.307Z,8.77
2023-04-07T09:33:50.239Z,8.39
2023-04-07T09:36:19.711Z,8.46
2023-04-07T09:38:48.937Z,8.44
2023-04-07T09:41:17.916Z,8.71
2023-04-07T09:43:47.100Z,8.55
2023-04-07T09:46:18.077Z,8.55
2023-04-07T09:48:48.741Z,8.36
2023-04-07T09:51:17.957Z,8.71
2023-04-07T09:53:48.009Z,8.59
2023-04-07T09:56:17.466Z,8.65
2023-04-07T09:58:46.530Z,9.00
2023-04-07T10:01:16.922Z,9.11
2023-04-07T10:03:46.808Z,8.93
2023-04-07T10:06:15.217Z,8.96
2023-04-07T10:08:43.819Z,8.96
2023-04-07T10:11:11.898Z,8.75
2023-04-07T10:13:41.298Z,8.83
2023-04-07T10:16:09.660Z,8.99
2023-04-07T10:18:39.272Z,9.13
2023-04-07T10:21:09.487Z,8.84
2023-04-07T10:23:45.055Z,8.79
2023-04-07T10:26:14.308Z,9.10
2023-04-07T10:28:42.533Z,9.12
2023-04-07T10:31:10.773Z,9.30
2023-04-07T10:33:51.796Z,9.08
2023-04-07T10:36:20.869Z,9.02
2023-04-07T10:39:23.638Z,8.74
2023-04-07T10:41:53.445Z,9.30
2023-04-07T10:44:46.896Z,9.03
2023-04-07T10:47:15.091Z,9.18
2023-04-07T10:50:02.985Z,8.77
2023-04-07T10:52:31.154Z,8.92
2023-04-07T10:55:31.679Z,8.80
2023-04-07T10:58:19.060Z,9.17
2023-04-07T11:01:16.802Z,9.24
2023-04-07T11:03:54.726Z,9.07
2023-04-07T11:06:24.309Z,9.05
2023-04-07T11:08:52.358Z,9.01
2023-04-07T11:11:23.438Z,9.00
2023-04-07T11:13:52.138Z,8.91
2023-04-07T11:16:21.364Z,9.34
2023-04-07T11:18:49.872Z,8.94
2023-04-07T11:21:19.209Z,8.92
2023-04-07T11:23:49.388Z,8.91
2023-04-07T11:26:17.665Z,9.04
2023-04-07T11:28:47.249Z,8.97
2023-04-07T11:31:23.040Z,9.32
2023-04-07T11:33:53.891Z,9.38
2023-04-07T11:36:28.958Z,9.53
2023-04-07T11:38:58.756Z,9.61
2023-04-07T11:41:27.726Z,9.32
2023-04-07T11:44:06.787Z,9.35
2023-04-07T11:46:35.192Z,9.53
2023-04-07T11:49:13.358Z,9.74
2023-04-07T11:51:42.221Z,9.39
2023-04-07T11:54:11.834Z,9.65
2023-04-07T11:56:44.220Z,9.77
2023-04-07T11:59:23.261Z,9.55
2023-04-07T12:01:52.120Z,9.22
2023-04-07T12:04:21.221Z,9.20
2023-04-07T12:06:49.960Z,9.30
2023-04-07T12:09:29.796Z,9.16
2023-04-07T12:11:58.422Z,9.06
2023-04-07T12:14:27.857Z,9.02
2023-04-07T12:16:58.196Z,9.01
2023-04-07T12:19:27.268Z,9.13
2023-04-07T12:21:57.721Z,9.52
2023-04-07T12:24:25.784Z,9.52
2023-04-07T12:26:55.484Z,9.32
2023-04-07T12:29:24.192Z,9.19
2023-04-07T12:31:52.152Z,9.27
2023-04-07T12:34:20.215Z,9.13
2023-04-07T12:36:51.702Z,9.19
2023-04-07T12:39:20.916Z,9.39
2023-04-07T12:41:53.420Z,9.21
2023-04-07T12:44:22.942Z,9.21
2023-04-07T12:46:50.991Z,9.05
2023-04-07T12:49:19.038Z,9.25
2023-04-07T12:51:47.022Z,9.13
2023-04-07T12:54:15.121Z,9.25
2023-04-07T12:56:43.140Z,9.32
2023-04-07T12:59:11.119Z,9.57
2023-04-07T13:01:41.157Z,9.45
2023-04-07T13:04:09.297Z,9.66
2023-04-07T13:06:37.356Z,9.45
2023-04-07T13:09:05.786Z,9.54
2023-04-07T13:11:33.873Z,9.63
2023-04-07T13:14:02.009Z,9.67
2023-04-07T13:16:30.061Z,9.75
2023-04-07T13:18:59.427Z,9.51
2023-04-07T13:21:45.441Z,9.37
2023-04-07T13:24:14.877Z,9.34
2023-04-07T13:26:42.892Z,9.26
2023-04-07T13:29:10.914Z,9.38
2023-04-07T13:31:39.413Z,9.29
2023-04-07T13:34:08.814Z,9.24
2023-04-07T13:36:37.008Z,9.15
2023-04-07T13:39:05.200Z,9.14
2023-04-07T13:41:33.286Z,9.13
2023-04-07T13:44:04.705Z,9.20
2023-04-07T13:46:33.180Z,9.10
2023-04-07T13:49:01.360Z,9.00
2023-04-07T13:51:30.757Z,9.03
2023-04-07T13:53:58.723Z,8.90
2023-04-07T13:56:26.819Z,9.08
2023-04-07T13:58:54.780Z,8.97
2023-04-07T14:01:22.815Z,8.98
2023-04-07T14:03:50.980Z,8.98
2023-04-07T14:06:22.953Z,9.15
2023-04-07T14:08:52.414Z,9.02
2023-04-07T14:11:20.460Z,8.92
2023-04-07T14:13:49.044Z,9.04
2023-04-07T14:16:17.639Z,9.10
2023-04-07T14:18:46.912Z,9.10
2023-04-07T14:21:15.297Z,9.23
2023-04-07T14:23:43.429Z,9.17
2023-04-07T14:26:13.209Z,9.31
2023-04-07T14:28:41.616Z,9.43
2023-04-07T14:31:14.260Z,9.27
2023-04-07T14:33:42.378Z,9.22
2023-04-07T14:36:10.380Z,9.22
2023-04-07T14:38:38.415Z,9.19
2023-04-07T14:41:10.030Z,9.29
2023-04-07T14:43:40.218Z,9.67
2023-04-07T14:46:08.380Z,9.46
2023-04-07T14:48:36.688Z,9.63
2023-04-07T14:51:09.871Z,9.60
2023-04-07T14:53:38.190Z,9.62
2023-04-07T14:56:06.317Z,9.84
2023-04-07T14:58:37.399Z,9.83
2023-04-07T15:01:07.163Z,9.93
2023-04-07T15:03:35.747Z,10.03
2023-04-07T15:06:07.939Z,10.11
2023-04-07T15:08:36.449Z,10.17
2023-04-07T15:11:07.760Z,10.11
2023-04-07T15:13:39.088Z,10.24
2023-04-07T15:16:12.688Z,10.31
2023-04-07T15:18:42.179Z,9.76
2023-04-07T15:21:10.394Z,10.00
2023-04-07T15:23:38.958Z,9.67
2023-04-07T15:26:07.481Z,9.88
2023-04-07T15:28:35.805Z,9.75
2023-04-07T15:31:14.809Z,9.72
2023-04-07T15:33:44.236Z,9.65
2023-04-07T15:36:12.458Z,9.75
2023-04-07T15:38:40.715Z,9.56
2023-04-07T15:41:08.729Z,9.73
2023-04-07T15:43:37.580Z,9.58
2023-04-07T15:46:05.753Z,9.65
2023-04-07T15:48:35.104Z,9.47
2023-04-07T15:51:03.190Z,9.44
2023-04-07T15:53:31.283Z,9.41
2023-04-07T15:55:59.356Z,9.66
2023-04-07T15:58:27.351Z,9.45
2023-04-07T16:00:55.853Z,9.34
2023-04-07T16:03:24.512Z,9.36
2023-04-07T16:05:54.060Z,9.43
2023-04-07T16:08:23.506Z,9.59
2023-04-07T16:10:51.582Z,9.58
2023-04-07T16:13:20.050Z,9.76
2023-04-07T16:15:50.036Z,9.80
2023-04-07T16:18:18.138Z,9.67
2023-04-07T16:20:46.282Z,9.88
2023-04-07T16:23:16.080Z,9.48
2023-04-07T16:25:44.198Z,9.66
2023-04-07T16:28:12.236Z,9.37
2023-04-07T16:30:40.461Z,9.47
2023-04-07T16:33:08.926Z,9.28
2023-04-07T16:35:36.981Z,9.30
2023-04-07T16:38:06.143Z,9.14
2023-04-07T16:40:36.050Z,9.42
2023-04-07T16:43:04.312Z,9.62
2023-04-07T16:45:32.440Z,9.25
2023-04-07T16:48:00.992Z,9.42
2023-04-07T16:50:29.111Z,9.27
2023-04-07T16:52:57.753Z,9.36
2023-04-07T16:55:25.761Z,9.43
2023-04-07T16:57:55.667Z,9.40
2023-04-07T17:00:23.739Z,9.68
2023-04-07T17:02:55.072Z,9.56
2023-04-07T17:05:24.105Z,9.69
2023-04-07T17:07:52.659Z,9.76
2023-04-07T17:10:20.703Z,9.78
2023-04-07T17:12:53.155Z,9.52
2023-04-07T17:15:23.253Z,9.56
2023-04-07T17:17:51.507Z,9.63
2023-04-07T17:20:22.769Z,9.36
2023-04-07T17:22:51.303Z,9.38
2023-04-07T17:25:19.527Z,9.50
2023-04-07T17:27:48.147Z,9.64
2023-04-07T17:30:16.318Z,9.52
2023-04-07T17:32:46.168Z,9.65
2023-04-07T17:35:14.170Z,9.62
2023-04-07T17:37:42.459Z,9.61
2023-04-07T17:40:11.501Z,9.55
2023-04-07T17:42:39.977Z,9.60
2023-04-07T17:45:10.856Z,9.56
2023-04-07T17:47:39.056Z,9.72
2023-04-07T17:50:09.775Z,9.74
2023-04-07T17:52:37.800Z,9.42
2023-04-07T17:55:06.968Z,9.47
2023-04-07T17:57:36.273Z,9.35
2023-04-07T18:00:09.185Z,9.30
2023-04-07T18:02:40.270Z,9.36
2023-04-07T18:05:10.966Z,9.62
2023-04-07T18:07:38.987Z,9.42
2023-04-07T18:10:09.536Z,9.60
2023-04-07T18:12:37.546Z,9.51
2023-04-07T18:15:06.194Z,9.38
2023-04-07T18:17:34.537Z,9.57
2023-04-07T18:20:04.840Z,9.58
2023-04-07T18:22:34.656Z,9.58
2023-04-07T18:25:02.856Z,9.51
2023-04-07T18:27:30.831Z,9.68
2023-04-07T18:29:59.326Z,9.61
2023-04-07T18:32:27.388Z,9.77
2023-04-07T18:34:55.398Z,9.72
2023-04-07T18:37:23.424Z,9.39
2023-04-07T18:39:53.866Z,9.58
2023-04-07T18:42:21.849Z,9.62
2023-04-07T18:44:49.880Z,9.62
2023-04-07T18:47:18.178Z,9.52
2023-04-07T18:49:46.245Z,9.64
2023-04-07T18:52:14.614Z,9.43
2023-04-07T18:54:42.627Z,9.44
2023-04-07T18:57:15.257Z,9.46
2023-04-07T18:59:43.725Z,9.38
2023-04-07T19:02:11.848Z,9.01
2023-04-07T19:04:40.872Z,9.01
2023-04-07T19:07:08.948Z,9.04
2023-04-07T19:09:37.905Z,9.10
2023-04-07T19:12:06.594Z,9.01
2023-04-07T19:14:36.069Z,9.19
2023-04-07T19:17:04.127Z,9.22
2023-04-07T19:19:32.681Z,9.05
2023-04-07T19:22:14.756Z,9.09
2023-04-07T19:24:42.689Z,9.20
2023-04-07T19:27:12.091Z,9.09
2023-04-07T19:29:45.736Z,9.12
2023-04-07T19:32:14.562Z,9.02
2023-04-07T19:34:42.719Z,8.98
2023-04-07T19:37:11.138Z,9.07
2023-04-07T19:39:40.204Z,8.81
2023-04-07T19:42:08.878Z,8.74
2023-04-07T19:44:37.646Z,8.91
2023-04-07T19:47:07.158Z,8.79
2023-04-07T19:49:39.633Z,8.83
2023-04-07T19:52:11.577Z,8.85
2023-04-07T19:54:56.766Z,8.86
2023-04-07T19:57:49.926Z,8.94
2023-04-07T20:00:58.565Z,8.90
2023-04-07T20:03:28.461Z,8.80
2023-04-07T20:06:21.459Z,8.92
2023-04-07T20:09:22.629Z,8.60
2023-04-07T20:11:51.103Z,8.67
2023-04-07T20:14:36.303Z,8.52
2023-04-07T20:17:13.214Z,8.74
2023-04-07T20:20:04.587Z,8.79
2023-04-07T20:22:36.155Z,8.65
2023-04-07T20:25:05.572Z,8.71
2023-04-07T20:27:33.653Z,8.59
2023-04-07T20:30:22.381Z,8.70
2023-04-07T20:32:56.276Z,8.78
2023-04-07T20:35:49.764Z,8.75
2023-04-07T20:38:51.504Z,8.85
2023-04-07T20:41:27.678Z,8.83
2023-04-07T20:44:12.846Z,8.61
2023-04-07T20:46:56.290Z,8.74
2023-04-07T20:49:28.598Z,8.55
2023-04-07T20:52:22.536Z,8.51
2023-04-07T20:54:50.566Z,8.53
2023-04-07T20:57:19.202Z,8.63
2023-04-07T20:59:47.161Z,8.52
2023-04-07T21:02:27.479Z,8.64
2023-04-07T21:04:55.538Z,8.66
2023-04-07T21:07:24.968Z,8.69
2023-04-07T21:09:53.540Z,8.66
2023-04-07T21:12:21.689Z,8.86
2023-04-07T21:14:49.753Z,8.93
2023-04-07T21:17:20.524Z,9.00
2023-04-07T21:19:53.166Z,8.75
2023-04-07T21:22:21.225Z,8.70
2023-04-07T21:24:50.631Z,8.54
2023-04-07T21:27:19.067Z,8.61
2023-04-07T21:29:47.097Z,8.63
2023-04-07T21:32:15.471Z,8.73
2023-04-07T21:34:43.887Z,8.77
2023-04-07T21:37:11.845Z,8.62
2023-04-07T21:39:39.914Z,8.67
2023-04-07T21:42:09.228Z,8.73
2023-04-07T21:44:37.446Z,8.81
2023-04-07T21:47:05.420Z,8.72
2023-04-07T21:49:33.528Z,8.70
2023-04-07T21:52:01.541Z,8.77
2023-04-07T21:54:29.643Z,8.82
2023-04-07T21:56:57.921Z,8.99
2023-04-07T21:59:27.371Z,8.98
2023-04-07T22:01:56.465Z,9.00
2023-04-07T22:04:25.002Z,9.01
2023-04-07T22:06:53.072Z,8.88
2023-04-07T22:09:21.025Z,8.87
2023-04-07T22:11:49.096Z,8.94
2023-04-07T22:14:17.142Z,8.94
2023-04-07T22:16:46.608Z,8.79
2023-04-07T22:19:16.732Z,8.95
2023-04-07T22:21:44.736Z,8.99
2023-04-07T22:24:12.747Z,9.00
2023-04-07T22:26:41.267Z,9.03
2023-04-07T22:29:09.672Z,8.99
2023-04-07T22:31:37.788Z,9.09
2023-04-07T22:34:08.372Z,9.09
2023-04-07T22:36:36.631Z,9.00
2023-04-07T22:39:04.853Z,8.96
2023-04-07T22:41:32.902Z,9.12
2023-04-07T22:44:00.886Z,9.19
2023-04-07T22:46:28.874Z,9.21
2023-04-07T22:48:56.854Z,9.01
2023-04-07T22:51:27.210Z,8.76
2023-04-07T22:53:55.567Z,8.94
2023-04-07T22:56:24.290Z,8.89
2023-04-07T22:58:52.428Z,8.91
2023-04-07T23:01:20.558Z,8.87
2023-04-07T23:03:48.733Z,8.90
2023-04-07T23:06:16.815Z,8.80
2023-04-07T23:08:46.165Z,8.80
2023-04-07T23:11:15.753Z,8.78
2023-04-07T23:13:43.902Z,8.82
2023-04-07T23:16:12.742Z,8.86
2023-04-07T23:18:40.978Z,8.60
2023-04-07T23:21:09.252Z,8.44
2023-04-07T23:23:39.091Z,8.64
2023-04-07T23:26:08.574Z,8.37
2023-04-07T23:28:37.057Z,8.41
2023-04-07T23:31:06.834Z,8.37
2023-04-07T23:33:34.829Z,8.30
2023-04-07T23:36:02.891Z,8.35
2023-04-07T23:38:30.916Z,8.27
2023-04-07T23:40:58.866Z,8.19
2023-04-07T23:43:28.242Z,8.22
2023-04-07T23:45:56.640Z,8.22
2023-04-07T23:48:26.268Z,8.27
2023-04-07T23:50:54.269Z,8.25
2023-04-07T23:53:24.755Z,8.38
2023-04-07T23:55:52.884Z,8.47
2023-04-07T23:58:21.117Z,8.35
